Airfield :
LOGIN :

Register | Disclaimer

   EN    FR    IT 

 










Legend :    VFR   Marginal VFR   IFR   Intensive IFR   Very Intensive IFR
Visi :
Ceiling :
>= 8 km
>= 3000ft
5 to 8 km
1000 to 3000 ft
1500m to 5 km
500 to 1000 ft
800 to 1500m
200 to 500 ft
< 800m
< 200 ft
Symbols :   Thunderstorms  Fog  Heavy snow  Heavy precipitations  Wind > 20 kt
SIGMETs :     Misc.  Thunderstorms  Icing  Turbulence  Mountain Waves  Volcanic Ashes






- Airport Elevation : 291 ft
- IATA code : ORY


LFPO - Paris-Orly

CURRENT METAR :
  • 022030Z AUTO 06006KT CAVOK 24/09 Q1012 NOSIG

EXPIRED METARs :
  • 022000Z AUTO 07006KT CAVOK 25/08 Q1012 NOSIG
  • 021930Z AUTO 07007KT CAVOK 25/07 Q1012 NOSIG
  • 021900Z AUTO 07005KT CAVOK 26/07 Q1012 NOSIG
  • 021830Z AUTO 06006KT 020V090 CAVOK 27/08 Q1012 NOSIG
  • 021800Z AUTO 07007KT CAVOK 28/08 Q1012 NOSIG

TAF TAF LFPO
Valid from the 02 at 18:00 until the 04 at 00:00 UTC


021700Z 0218/0324 VRB05KT CAVOK
BECMG 0310/0312 28005KT 9999 SCT060 SCT070TCU
TEMPO 0313/0324 -SHRA SCT060 SCT070CB
PROB40
TEMPO 0315/0323 34010G25KT 2000 TSRA BKN050CB
ATIS : +33 1 49 75 65 80



MET'MAP, your aeronautical weather chart ! - Copyright ORBIFLY December 2007 - Disclaimer

ORBIFLY MET'MAP TEAM :

Programming & Development : Alexandra Zaïnal
Concept & original design : Baudouin d'Aumeries
Assistance for programming : Marc-Olivier Méhu
Technical & hardware support : Manuel Goepfert

Contact : metmap@orbifly.com




SOURCES & CREDITS :

   NOAA